sensor_id;sensor_type;location;lat;lon;timestamp;P1;durP1;ratioP1;P2;durP2;ratioP2
63770;SDS011;60282;43.862;18.430;2022-08-23T00:01:47;9.93;;;3.38;;
63770;SDS011;60282;43.862;18.430;2022-08-23T00:04:15;9.95;;;4.10;;
63770;SDS011;60282;43.862;18.430;2022-08-23T00:06:47;8.60;;;3.35;;
63770;SDS011;60282;43.862;18.430;2022-08-23T00:09:14;6.40;;;2.85;;
63770;SDS011;60282;43.862;18.430;2022-08-23T00:11:46;4.95;;;2.30;;
63770;SDS011;60282;43.862;18.430;2022-08-23T00:16:42;6.47;;;2.95;;
63770;SDS011;60282;43.862;18.430;2022-08-23T00:19:10;6.18;;;3.25;;
63770;SDS011;60282;43.862;18.430;2022-08-23T00:21:37;7.25;;;3.33;;
63770;SDS011;60282;43.862;18.430;2022-08-23T00:24:05;8.15;;;3.85;;
63770;SDS011;60282;43.862;18.430;2022-08-23T00:29:19;7.70;;;3.13;;
63770;SDS011;60282;43.862;18.430;2022-08-23T00:31:46;7.93;;;3.60;;
63770;SDS011;60282;43.862;18.430;2022-08-23T00:34:13;7.13;;;3.45;;
63770;SDS011;60282;43.862;18.430;2022-08-23T00:36:39;10.30;;;4.00;;
63770;SDS011;60282;43.862;18.430;2022-08-23T00:39:05;8.18;;;4.13;;
63770;SDS011;60282;43.862;18.430;2022-08-23T00:41:35;9.23;;;4.35;;
63770;SDS011;60282;43.862;18.430;2022-08-23T00:44:02;9.23;;;3.35;;
63770;SDS011;60282;43.862;18.430;2022-08-23T00:46:49;9.60;;;4.40;;
63770;SDS011;60282;43.862;18.430;2022-08-23T00:49:36;7.03;;;3.35;;
63770;SDS011;60282;43.862;18.430;2022-08-23T00:52:11;7.57;;;3.95;;
63770;SDS011;60282;43.862;18.430;2022-08-23T00:54:44;6.93;;;3.40;;
63770;SDS011;60282;43.862;18.430;2022-08-23T00:57:12;9.55;;;2.80;;
63770;SDS011;60282;43.862;18.430;2022-08-23T00:59:42;8.82;;;4.13;;
63770;SDS011;60282;43.862;18.430;2022-08-23T01:02:08;7.72;;;3.35;;
63770;SDS011;60282;43.862;18.430;2022-08-23T01:04:36;8.00;;;3.65;;
63770;SDS011;60282;43.862;18.430;2022-08-23T01:07:17;8.00;;;3.70;;
63770;SDS011;60282;43.862;18.430;2022-08-23T01:10:06;6.35;;;2.90;;
63770;SDS011;60282;43.862;18.430;2022-08-23T01:12:38;9.10;;;4.40;;
63770;SDS011;60282;43.862;18.430;2022-08-23T01:15:15;9.00;;;3.55;;
63770;SDS011;60282;43.862;18.430;2022-08-23T01:17:49;8.57;;;3.72;;
63770;SDS011;60282;43.862;18.430;2022-08-23T01:20:20;9.23;;;3.90;;
63770;SDS011;60282;43.862;18.430;2022-08-23T01:22:55;9.68;;;4.43;;
63770;SDS011;60282;43.862;18.430;2022-08-23T01:25:28;8.52;;;3.42;;
63770;SDS011;60282;43.862;18.430;2022-08-23T01:27:55;9.30;;;4.47;;
63770;SDS011;60282;43.862;18.430;2022-08-23T01:30:23;8.30;;;3.72;;
63770;SDS011;60282;43.862;18.430;2022-08-23T01:32:52;8.25;;;3.38;;
63770;SDS011;60282;43.862;18.430;2022-08-23T01:35:23;8.27;;;3.63;;
63770;SDS011;60282;43.862;18.430;2022-08-23T01:37:55;8.48;;;4.00;;
63770;SDS011;60282;43.862;18.430;2022-08-23T01:40:21;10.80;;;4.20;;
63770;SDS011;60282;43.862;18.430;2022-08-23T01:42:47;8.90;;;4.15;;
63770;SDS011;60282;43.862;18.430;2022-08-23T01:45:13;10.35;;;4.50;;
63770;SDS011;60282;43.862;18.430;2022-08-23T01:47:39;9.93;;;4.20;;
63770;SDS011;60282;43.862;18.430;2022-08-23T01:50:09;7.78;;;3.45;;
63770;SDS011;60282;43.862;18.430;2022-08-23T01:52:37;11.43;;;4.07;;
63770;SDS011;60282;43.862;18.430;2022-08-23T01:55:04;10.00;;;4.40;;
63770;SDS011;60282;43.862;18.430;2022-08-23T01:57:31;8.50;;;3.92;;
63770;SDS011;60282;43.862;18.430;2022-08-23T01:59:58;9.93;;;3.45;;
63770;SDS011;60282;43.862;18.430;2022-08-23T02:02:25;8.70;;;3.55;;
63770;SDS011;60282;43.862;18.430;2022-08-23T02:04:52;8.88;;;4.38;;
63770;SDS011;60282;43.862;18.430;2022-08-23T02:07:18;8.88;;;3.70;;
63770;SDS011;60282;43.862;18.430;2022-08-23T02:09:45;8.25;;;3.58;;
63770;SDS011;60282;43.862;18.430;2022-08-23T02:12:10;7.50;;;3.22;;
63770;SDS011;60282;43.862;18.430;2022-08-23T02:14:36;7.82;;;3.72;;
63770;SDS011;60282;43.862;18.430;2022-08-23T02:17:06;11.52;;;3.78;;
63770;SDS011;60282;43.862;18.430;2022-08-23T02:19:32;8.05;;;3.17;;
63770;SDS011;60282;43.862;18.430;2022-08-23T02:21:59;10.15;;;4.80;;
63770;SDS011;60282;43.862;18.430;2022-08-23T02:24:25;8.00;;;3.72;;
63770;SDS011;60282;43.862;18.430;2022-08-23T02:26:52;6.60;;;3.35;;
63770;SDS011;60282;43.862;18.430;2022-08-23T02:29:21;9.02;;;4.40;;
63770;SDS011;60282;43.862;18.430;2022-08-23T02:31:48;11.38;;;4.20;;
63770;SDS011;60282;43.862;18.430;2022-08-23T02:34:16;10.25;;;3.95;;
63770;SDS011;60282;43.862;18.430;2022-08-23T02:36:42;8.75;;;3.97;;
63770;SDS011;60282;43.862;18.430;2022-08-23T02:39:09;7.25;;;3.58;;
63770;SDS011;60282;43.862;18.430;2022-08-23T02:41:47;10.48;;;3.80;;
63770;SDS011;60282;43.862;18.430;2022-08-23T02:44:16;10.15;;;3.55;;
63770;SDS011;60282;43.862;18.430;2022-08-23T02:46:43;7.63;;;3.53;;
63770;SDS011;60282;43.862;18.430;2022-08-23T02:49:10;11.30;;;4.75;;
63770;SDS011;60282;43.862;18.430;2022-08-23T02:51:37;9.95;;;4.90;;
63770;SDS011;60282;43.862;18.430;2022-08-23T02:54:05;6.60;;;3.65;;
63770;SDS011;60282;43.862;18.430;2022-08-23T02:56:32;12.70;;;5.28;;
63770;SDS011;60282;43.862;18.430;2022-08-23T02:58:58;17.05;;;5.78;;
63770;SDS011;60282;43.862;18.430;2022-08-23T03:01:26;8.32;;;3.65;;
63770;SDS011;60282;43.862;18.430;2022-08-23T03:03:53;8.98;;;4.10;;
63770;SDS011;60282;43.862;18.430;2022-08-23T03:06:20;8.55;;;4.00;;
63770;SDS011;60282;43.862;18.430;2022-08-23T03:08:46;10.13;;;4.35;;
63770;SDS011;60282;43.862;18.430;2022-08-23T03:11:13;8.10;;;4.07;;
63770;SDS011;60282;43.862;18.430;2022-08-23T03:13:41;9.00;;;4.28;;
63770;SDS011;60282;43.862;18.430;2022-08-23T03:16:10;11.43;;;4.60;;
63770;SDS011;60282;43.862;18.430;2022-08-23T03:18:37;10.73;;;4.90;;
63770;SDS011;60282;43.862;18.430;2022-08-23T03:21:04;9.43;;;4.40;;
63770;SDS011;60282;43.862;18.430;2022-08-23T03:23:31;10.27;;;4.47;;
63770;SDS011;60282;43.862;18.430;2022-08-23T03:26:19;9.02;;;3.75;;
63770;SDS011;60282;43.862;18.430;2022-08-23T03:28:48;9.57;;;4.13;;
63770;SDS011;60282;43.862;18.430;2022-08-23T03:31:17;11.00;;;4.35;;
63770;SDS011;60282;43.862;18.430;2022-08-23T03:33:52;10.10;;;5.20;;
63770;SDS011;60282;43.862;18.430;2022-08-23T03:36:25;9.10;;;4.13;;
63770;SDS011;60282;43.862;18.430;2022-08-23T03:38:54;9.38;;;4.25;;
63770;SDS011;60282;43.862;18.430;2022-08-23T03:41:21;8.48;;;3.85;;
63770;SDS011;60282;43.862;18.430;2022-08-23T03:43:47;10.00;;;4.03;;
63770;SDS011;60282;43.862;18.430;2022-08-23T03:46:13;11.25;;;3.85;;
63770;SDS011;60282;43.862;18.430;2022-08-23T03:48:56;11.50;;;3.78;;
63770;SDS011;60282;43.862;18.430;2022-08-23T03:51:23;9.02;;;3.60;;
63770;SDS011;60282;43.862;18.430;2022-08-23T03:53:51;11.43;;;4.22;;
63770;SDS011;60282;43.862;18.430;2022-08-23T03:56:30;7.88;;;3.05;;
63770;SDS011;60282;43.862;18.430;2022-08-23T03:58:58;9.23;;;3.15;;
63770;SDS011;60282;43.862;18.430;2022-08-23T04:01:26;9.90;;;4.00;;
63770;SDS011;60282;43.862;18.430;2022-08-23T04:03:54;10.93;;;4.47;;
63770;SDS011;60282;43.862;18.430;2022-08-23T04:06:24;8.70;;;3.80;;
63770;SDS011;60282;43.862;18.430;2022-08-23T04:08:54;9.85;;;3.58;;
63770;SDS011;60282;43.862;18.430;2022-08-23T04:11:23;10.57;;;3.58;;
63770;SDS011;60282;43.862;18.430;2022-08-23T04:13:52;9.43;;;3.47;;
63770;SDS011;60282;43.862;18.430;2022-08-23T04:16:25;10.48;;;3.88;;
63770;SDS011;60282;43.862;18.430;2022-08-23T04:18:52;8.68;;;3.55;;
63770;SDS011;60282;43.862;18.430;2022-08-23T04:21:21;9.55;;;3.67;;
63770;SDS011;60282;43.862;18.430;2022-08-23T04:23:47;9.05;;;3.55;;
63770;SDS011;60282;43.862;18.430;2022-08-23T04:26:14;9.15;;;3.72;;
63770;SDS011;60282;43.862;18.430;2022-08-23T04:28:40;8.75;;;3.58;;
63770;SDS011;60282;43.862;18.430;2022-08-23T04:31:06;7.85;;;3.78;;
63770;SDS011;60282;43.862;18.430;2022-08-23T04:33:34;10.48;;;3.90;;
63770;SDS011;60282;43.862;18.430;2022-08-23T04:36:00;10.40;;;4.82;;
63770;SDS011;60282;43.862;18.430;2022-08-23T04:38:28;7.43;;;3.30;;
63770;SDS011;60282;43.862;18.430;2022-08-23T04:40:54;11.25;;;4.18;;
63770;SDS011;60282;43.862;18.430;2022-08-23T04:43:39;10.60;;;4.15;;
63770;SDS011;60282;43.862;18.430;2022-08-23T04:46:08;10.25;;;4.30;;
63770;SDS011;60282;43.862;18.430;2022-08-23T04:48:34;12.88;;;4.95;;
63770;SDS011;60282;43.862;18.430;2022-08-23T04:51:00;10.95;;;4.95;;
63770;SDS011;60282;43.862;18.430;2022-08-23T04:53:26;13.20;;;4.93;;
63770;SDS011;60282;43.862;18.430;2022-08-23T04:55:54;10.00;;;4.13;;
63770;SDS011;60282;43.862;18.430;2022-08-23T04:58:20;9.07;;;4.72;;
63770;SDS011;60282;43.862;18.430;2022-08-23T05:00:50;11.15;;;4.65;;
63770;SDS011;60282;43.862;18.430;2022-08-23T05:03:17;10.95;;;4.57;;
63770;SDS011;60282;43.862;18.430;2022-08-23T05:05:43;15.13;;;4.55;;
63770;SDS011;60282;43.862;18.430;2022-08-23T05:08:09;12.90;;;5.22;;
63770;SDS011;60282;43.862;18.430;2022-08-23T05:10:35;13.57;;;4.55;;
63770;SDS011;60282;43.862;18.430;2022-08-23T05:13:01;9.15;;;3.88;;
63770;SDS011;60282;43.862;18.430;2022-08-23T05:15:26;10.02;;;3.97;;
63770;SDS011;60282;43.862;18.430;2022-08-23T05:17:52;11.55;;;4.45;;
63770;SDS011;60282;43.862;18.430;2022-08-23T05:20:18;11.48;;;4.25;;
63770;SDS011;60282;43.862;18.430;2022-08-23T05:22:44;9.63;;;3.85;;
63770;SDS011;60282;43.862;18.430;2022-08-23T05:25:10;10.52;;;5.07;;
63770;SDS011;60282;43.862;18.430;2022-08-23T05:27:36;13.40;;;6.20;;
63770;SDS011;60282;43.862;18.430;2022-08-23T05:30:03;9.50;;;4.30;;
63770;SDS011;60282;43.862;18.430;2022-08-23T05:32:30;8.68;;;3.72;;
63770;SDS011;60282;43.862;18.430;2022-08-23T05:34:56;11.38;;;4.65;;
63770;SDS011;60282;43.862;18.430;2022-08-23T05:37:22;8.85;;;3.33;;
63770;SDS011;60282;43.862;18.430;2022-08-23T05:39:47;16.10;;;4.30;;
63770;SDS011;60282;43.862;18.430;2022-08-23T05:42:14;9.27;;;3.42;;
63770;SDS011;60282;43.862;18.430;2022-08-23T05:44:43;11.35;;;4.07;;
63770;SDS011;60282;43.862;18.430;2022-08-23T05:47:10;10.77;;;4.22;;
63770;SDS011;60282;43.862;18.430;2022-08-23T05:49:38;11.60;;;3.92;;
63770;SDS011;60282;43.862;18.430;2022-08-23T05:52:05;21.13;;;4.05;;
63770;SDS011;60282;43.862;18.430;2022-08-23T05:54:36;13.48;;;4.00;;
63770;SDS011;60282;43.862;18.430;2022-08-23T05:57:02;9.65;;;4.28;;
63770;SDS011;60282;43.862;18.430;2022-08-23T05:59:28;9.35;;;3.67;;
63770;SDS011;60282;43.862;18.430;2022-08-23T06:01:54;10.07;;;4.60;;
63770;SDS011;60282;43.862;18.430;2022-08-23T06:04:21;9.05;;;2.50;;
63770;SDS011;60282;43.862;18.430;2022-08-23T06:06:47;8.38;;;3.63;;
63770;SDS011;60282;43.862;18.430;2022-08-23T06:09:14;8.43;;;3.25;;
63770;SDS011;60282;43.862;18.430;2022-08-23T06:11:42;6.82;;;3.30;;
63770;SDS011;60282;43.862;18.430;2022-08-23T06:14:09;7.47;;;3.38;;
63770;SDS011;60282;43.862;18.430;2022-08-23T06:16:40;8.48;;;3.00;;
63770;SDS011;60282;43.862;18.430;2022-08-23T06:19:08;8.40;;;3.47;;
63770;SDS011;60282;43.862;18.430;2022-08-23T06:21:34;9.20;;;3.58;;
63770;SDS011;60282;43.862;18.430;2022-08-23T06:24:01;14.88;;;3.40;;
63770;SDS011;60282;43.862;18.430;2022-08-23T06:26:28;8.30;;;3.15;;
63770;SDS011;60282;43.862;18.430;2022-08-23T06:28:56;7.93;;;2.97;;
63770;SDS011;60282;43.862;18.430;2022-08-23T06:31:24;8.07;;;3.80;;
63770;SDS011;60282;43.862;18.430;2022-08-23T06:34:11;8.60;;;3.22;;
63770;SDS011;60282;43.862;18.430;2022-08-23T06:36:39;8.13;;;4.15;;
63770;SDS011;60282;43.862;18.430;2022-08-23T06:39:08;7.38;;;2.70;;
63770;SDS011;60282;43.862;18.430;2022-08-23T06:41:35;7.90;;;3.97;;
63770;SDS011;60282;43.862;18.430;2022-08-23T06:44:04;10.00;;;3.35;;
63770;SDS011;60282;43.862;18.430;2022-08-23T06:46:32;8.45;;;3.22;;
63770;SDS011;60282;43.862;18.430;2022-08-23T06:48:59;9.10;;;3.53;;
63770;SDS011;60282;43.862;18.430;2022-08-23T06:51:30;9.15;;;3.78;;
63770;SDS011;60282;43.862;18.430;2022-08-23T06:53:59;8.48;;;2.88;;
63770;SDS011;60282;43.862;18.430;2022-08-23T06:56:27;7.88;;;3.55;;
63770;SDS011;60282;43.862;18.430;2022-08-23T06:58:53;7.82;;;2.97;;
63770;SDS011;60282;43.862;18.430;2022-08-23T07:04:00;9.13;;;3.00;;
63770;SDS011;60282;43.862;18.430;2022-08-23T07:06:27;7.47;;;3.47;;
63770;SDS011;60282;43.862;18.430;2022-08-23T07:08:53;11.88;;;3.65;;
63770;SDS011;60282;43.862;18.430;2022-08-23T07:11:20;10.00;;;3.00;;
63770;SDS011;60282;43.862;18.430;2022-08-23T07:13:47;8.55;;;3.45;;
63770;SDS011;60282;43.862;18.430;2022-08-23T07:16:13;8.88;;;3.55;;
63770;SDS011;60282;43.862;18.430;2022-08-23T07:18:42;8.98;;;3.47;;
63770;SDS011;60282;43.862;18.430;2022-08-23T07:21:10;7.57;;;2.70;;
63770;SDS011;60282;43.862;18.430;2022-08-23T07:23:37;9.43;;;3.17;;
63770;SDS011;60282;43.862;18.430;2022-08-23T07:26:08;10.35;;;4.72;;
63770;SDS011;60282;43.862;18.430;2022-08-23T07:28:36;7.45;;;2.75;;
63770;SDS011;60282;43.862;18.430;2022-08-23T07:31:07;8.10;;;3.10;;
63770;SDS011;60282;43.862;18.430;2022-08-23T07:33:36;6.75;;;2.60;;
63770;SDS011;60282;43.862;18.430;2022-08-23T07:36:03;11.68;;;4.05;;
63770;SDS011;60282;43.862;18.430;2022-08-23T07:38:30;7.55;;;3.45;;
63770;SDS011;60282;43.862;18.430;2022-08-23T07:40:56;9.98;;;3.95;;
63770;SDS011;60282;43.862;18.430;2022-08-23T07:43:22;8.93;;;4.07;;
63770;SDS011;60282;43.862;18.430;2022-08-23T07:45:48;8.40;;;3.47;;
63770;SDS011;60282;43.862;18.430;2022-08-23T07:48:14;8.38;;;4.03;;
63770;SDS011;60282;43.862;18.430;2022-08-23T07:50:40;12.88;;;4.32;;
63770;SDS011;60282;43.862;18.430;2022-08-23T07:53:06;8.32;;;3.50;;
63770;SDS011;60282;43.862;18.430;2022-08-23T07:55:32;6.10;;;2.95;;
63770;SDS011;60282;43.862;18.430;2022-08-23T07:57:59;8.50;;;3.58;;
63770;SDS011;60282;43.862;18.430;2022-08-23T08:00:25;8.25;;;3.42;;
63770;SDS011;60282;43.862;18.430;2022-08-23T08:02:52;8.15;;;3.88;;
63770;SDS011;60282;43.862;18.430;2022-08-23T08:05:18;10.07;;;3.80;;
63770;SDS011;60282;43.862;18.430;2022-08-23T08:07:44;9.00;;;4.35;;
63770;SDS011;60282;43.862;18.430;2022-08-23T08:10:10;8.20;;;3.30;;
63770;SDS011;60282;43.862;18.430;2022-08-23T08:12:36;7.53;;;3.53;;
63770;SDS011;60282;43.862;18.430;2022-08-23T08:15:02;7.63;;;3.45;;
63770;SDS011;60282;43.862;18.430;2022-08-23T08:17:28;8.55;;;4.22;;
63770;SDS011;60282;43.862;18.430;2022-08-23T08:19:55;11.85;;;5.15;;
63770;SDS011;60282;43.862;18.430;2022-08-23T08:22:20;9.50;;;4.60;;
63770;SDS011;60282;43.862;18.430;2022-08-23T08:24:46;8.65;;;4.60;;
63770;SDS011;60282;43.862;18.430;2022-08-23T08:27:12;9.30;;;4.22;;
63770;SDS011;60282;43.862;18.430;2022-08-23T08:29:38;11.02;;;4.47;;
63770;SDS011;60282;43.862;18.430;2022-08-23T08:32:06;8.60;;;3.80;;
63770;SDS011;60282;43.862;18.430;2022-08-23T08:34:33;10.30;;;4.82;;
63770;SDS011;60282;43.862;18.430;2022-08-23T08:36:58;8.82;;;4.38;;
63770;SDS011;60282;43.862;18.430;2022-08-23T08:39:26;10.93;;;5.30;;
63770;SDS011;60282;43.862;18.430;2022-08-23T08:44:42;9.88;;;4.82;;
63770;SDS011;60282;43.862;18.430;2022-08-23T08:47:16;13.07;;;4.55;;
63770;SDS011;60282;43.862;18.430;2022-08-23T08:49:56;10.18;;;5.38;;
63770;SDS011;60282;43.862;18.430;2022-08-23T08:52:25;10.63;;;4.18;;
63770;SDS011;60282;43.862;18.430;2022-08-23T08:54:56;11.38;;;5.07;;
63770;SDS011;60282;43.862;18.430;2022-08-23T08:57:28;10.30;;;4.75;;
63770;SDS011;60282;43.862;18.430;2022-08-23T09:00:06;9.95;;;5.20;;
63770;SDS011;60282;43.862;18.430;2022-08-23T09:02:38;12.73;;;6.35;;
63770;SDS011;60282;43.862;18.430;2022-08-23T09:19:18;15.88;;;7.18;;
63770;SDS011;60282;43.862;18.430;2022-08-23T09:21:56;13.00;;;6.63;;
63770;SDS011;60282;43.862;18.430;2022-08-23T09:24:24;15.18;;;8.02;;
63770;SDS011;60282;43.862;18.430;2022-08-23T09:26:50;12.57;;;7.03;;
63770;SDS011;60282;43.862;18.430;2022-08-23T09:29:24;16.02;;;7.25;;
63770;SDS011;60282;43.862;18.430;2022-08-23T09:31:52;15.00;;;7.80;;
63770;SDS011;60282;43.862;18.430;2022-08-23T09:36:45;12.85;;;6.85;;
63770;SDS011;60282;43.862;18.430;2022-08-23T09:39:25;16.80;;;7.90;;
63770;SDS011;60282;43.862;18.430;2022-08-23T09:41:54;16.85;;;8.23;;
63770;SDS011;60282;43.862;18.430;2022-08-23T09:44:39;16.65;;;8.50;;
63770;SDS011;60282;43.862;18.430;2022-08-23T09:47:14;21.27;;;9.85;;
63770;SDS011;60282;43.862;18.430;2022-08-23T09:49:45;15.98;;;8.68;;
63770;SDS011;60282;43.862;18.430;2022-08-23T09:52:26;18.08;;;9.23;;
63770;SDS011;60282;43.862;18.430;2022-08-23T09:54:59;14.07;;;7.63;;
63770;SDS011;60282;43.862;18.430;2022-08-23T09:57:31;13.57;;;7.55;;
63770;SDS011;60282;43.862;18.430;2022-08-23T10:00:17;20.02;;;9.18;;
63770;SDS011;60282;43.862;18.430;2022-08-23T10:02:43;15.65;;;7.95;;
63770;SDS011;60282;43.862;18.430;2022-08-23T10:10:38;17.38;;;7.43;;
63770;SDS011;60282;43.862;18.430;2022-08-23T10:13:11;16.35;;;7.78;;
63770;SDS011;60282;43.862;18.430;2022-08-23T10:18:29;20.23;;;7.05;;
63770;SDS011;60282;43.862;18.430;2022-08-23T10:21:07;19.38;;;9.85;;
63770;SDS011;60282;43.862;18.430;2022-08-23T10:24:03;18.42;;;7.57;;
63770;SDS011;60282;43.862;18.430;2022-08-23T10:27:19;13.77;;;6.88;;
63770;SDS011;60282;43.862;18.430;2022-08-23T10:30:05;17.02;;;5.47;;
63770;SDS011;60282;43.862;18.430;2022-08-23T10:35:38;12.73;;;6.60;;
63770;SDS011;60282;43.862;18.430;2022-08-23T10:41:37;13.90;;;6.55;;
63770;SDS011;60282;43.862;18.430;2022-08-23T10:49:55;17.13;;;5.50;;
63770;SDS011;60282;43.862;18.430;2022-08-23T10:52:32;14.75;;;6.55;;
63770;SDS011;60282;43.862;18.430;2022-08-23T10:55:25;15.07;;;6.82;;
63770;SDS011;60282;43.862;18.430;2022-08-23T10:58:04;15.93;;;7.57;;
63770;SDS011;60282;43.862;18.430;2022-08-23T11:00:34;15.05;;;6.28;;
63770;SDS011;60282;43.862;18.430;2022-08-23T11:09:44;12.60;;;6.75;;
63770;SDS011;60282;43.862;18.430;2022-08-23T11:11:43;16.35;;;6.03;;
63770;SDS011;60282;43.862;18.430;2022-08-23T11:14:27;13.80;;;6.45;;
63770;SDS011;60282;43.862;18.430;2022-08-23T11:17:11;12.55;;;5.90;;
63770;SDS011;60282;43.862;18.430;2022-08-23T11:19:52;12.98;;;6.65;;
63770;SDS011;60282;43.862;18.430;2022-08-23T11:25:06;13.15;;;5.72;;
63770;SDS011;60282;43.862;18.430;2022-08-23T11:27:47;15.00;;;6.53;;
63770;SDS011;60282;43.862;18.430;2022-08-23T11:33:23;13.43;;;6.57;;
63770;SDS011;60282;43.862;18.430;2022-08-23T11:43:44;12.93;;;7.05;;
63770;SDS011;60282;43.862;18.430;2022-08-23T11:46:31;13.95;;;6.78;;
63770;SDS011;60282;43.862;18.430;2022-08-23T11:51:49;13.68;;;6.68;;
63770;SDS011;60282;43.862;18.430;2022-08-23T12:00:05;13.20;;;6.20;;
63770;SDS011;60282;43.862;18.430;2022-08-23T12:18:53;13.27;;;6.18;;
63770;SDS011;60282;43.862;18.430;2022-08-23T12:24:29;14.50;;;5.93;;
63770;SDS011;60282;43.862;18.430;2022-08-23T12:32:43;18.88;;;6.68;;
63770;SDS011;60282;43.862;18.430;2022-08-23T12:41:24;13.95;;;6.00;;
63770;SDS011;60282;43.862;18.430;2022-08-23T12:43:54;14.65;;;6.32;;
63770;SDS011;60282;43.862;18.430;2022-08-23T12:46:40;14.48;;;7.35;;
63770;SDS011;60282;43.862;18.430;2022-08-23T12:49:22;15.50;;;7.20;;
63770;SDS011;60282;43.862;18.430;2022-08-23T12:51:59;15.40;;;6.80;;
63770;SDS011;60282;43.862;18.430;2022-08-23T12:57:37;14.10;;;6.00;;
63770;SDS011;60282;43.862;18.430;2022-08-23T13:02:38;17.17;;;7.03;;
63770;SDS011;60282;43.862;18.430;2022-08-23T13:08:19;11.50;;;6.10;;
63770;SDS011;60282;43.862;18.430;2022-08-23T13:10:53;15.43;;;6.85;;
63770;SDS011;60282;43.862;18.430;2022-08-23T13:13:25;12.50;;;5.35;;
63770;SDS011;60282;43.862;18.430;2022-08-23T13:17:18;10.27;;;4.97;;
63770;SDS011;60282;43.862;18.430;2022-08-23T13:19:52;12.57;;;5.97;;
63770;SDS011;60282;43.862;18.430;2022-08-23T13:22:35;12.80;;;5.95;;
63770;SDS011;60282;43.862;18.430;2022-08-23T13:27:35;14.00;;;5.90;;
63770;SDS011;60282;43.862;18.430;2022-08-23T13:30:30;14.73;;;5.93;;
63770;SDS011;60282;43.862;18.430;2022-08-23T13:33:21;14.75;;;5.53;;
63770;SDS011;60282;43.862;18.430;2022-08-23T13:35:50;13.13;;;7.03;;
63770;SDS011;60282;43.862;18.430;2022-08-23T13:38:35;16.35;;;6.07;;
63770;SDS011;60282;43.862;18.430;2022-08-23T13:41:02;11.07;;;5.93;;
63770;SDS011;60282;43.862;18.430;2022-08-23T13:48:35;15.73;;;6.05;;
63770;SDS011;60282;43.862;18.430;2022-08-23T13:53:58;13.65;;;5.20;;
63770;SDS011;60282;43.862;18.430;2022-08-23T13:56:26;13.00;;;5.50;;
63770;SDS011;60282;43.862;18.430;2022-08-23T13:58:57;12.38;;;5.28;;
63770;SDS011;60282;43.862;18.430;2022-08-23T14:01:26;13.77;;;5.85;;
63770;SDS011;60282;43.862;18.430;2022-08-23T14:03:55;13.70;;;6.28;;
63770;SDS011;60282;43.862;18.430;2022-08-23T14:06:21;14.68;;;6.07;;
63770;SDS011;60282;43.862;18.430;2022-08-23T14:08:48;13.63;;;6.20;;
63770;SDS011;60282;43.862;18.430;2022-08-23T14:11:15;14.80;;;7.00;;
63770;SDS011;60282;43.862;18.430;2022-08-23T14:13:45;14.85;;;7.15;;
63770;SDS011;60282;43.862;18.430;2022-08-23T14:16:17;16.08;;;7.38;;
63770;SDS011;60282;43.862;18.430;2022-08-23T14:18:54;16.80;;;6.65;;
63770;SDS011;60282;43.862;18.430;2022-08-23T14:21:27;16.70;;;6.95;;
63770;SDS011;60282;43.862;18.430;2022-08-23T14:24:02;13.00;;;6.85;;
63770;SDS011;60282;43.862;18.430;2022-08-23T14:26:28;15.35;;;7.47;;
63770;SDS011;60282;43.862;18.430;2022-08-23T14:28:54;13.63;;;6.60;;
63770;SDS011;60282;43.862;18.430;2022-08-23T14:31:20;20.13;;;8.57;;
63770;SDS011;60282;43.862;18.430;2022-08-23T14:37:23;23.35;;;13.43;;
63770;SDS011;60282;43.862;18.430;2022-08-23T14:39:49;23.08;;;7.18;;
63770;SDS011;60282;43.862;18.430;2022-08-23T14:42:19;15.27;;;7.07;;
63770;SDS011;60282;43.862;18.430;2022-08-23T14:44:46;15.63;;;7.72;;
63770;SDS011;60282;43.862;18.430;2022-08-23T14:47:12;15.95;;;6.82;;
63770;SDS011;60282;43.862;18.430;2022-08-23T14:49:41;15.50;;;6.93;;
63770;SDS011;60282;43.862;18.430;2022-08-23T14:52:07;15.80;;;6.82;;
63770;SDS011;60282;43.862;18.430;2022-08-23T14:54:35;14.18;;;7.28;;
63770;SDS011;60282;43.862;18.430;2022-08-23T14:57:12;16.35;;;7.40;;
63770;SDS011;60282;43.862;18.430;2022-08-23T14:59:38;16.77;;;7.88;;
63770;SDS011;60282;43.862;18.430;2022-08-23T15:02:11;19.25;;;7.00;;
63770;SDS011;60282;43.862;18.430;2022-08-23T15:04:46;17.63;;;7.95;;
63770;SDS011;60282;43.862;18.430;2022-08-23T15:07:32;14.98;;;7.10;;
63770;SDS011;60282;43.862;18.430;2022-08-23T15:10:15;17.30;;;7.25;;
63770;SDS011;60282;43.862;18.430;2022-08-23T15:12:46;17.27;;;7.28;;
63770;SDS011;60282;43.862;18.430;2022-08-23T15:15:22;14.93;;;6.80;;
63770;SDS011;60282;43.862;18.430;2022-08-23T15:17:52;14.63;;;7.38;;
63770;SDS011;60282;43.862;18.430;2022-08-23T15:20:30;15.75;;;7.78;;
63770;SDS011;60282;43.862;18.430;2022-08-23T15:23:13;19.73;;;8.90;;
63770;SDS011;60282;43.862;18.430;2022-08-23T15:26:22;17.20;;;7.82;;
63770;SDS011;60282;43.862;18.430;2022-08-23T15:28:54;21.35;;;8.23;;
63770;SDS011;60282;43.862;18.430;2022-08-23T15:31:38;15.38;;;6.75;;
63770;SDS011;60282;43.862;18.430;2022-08-23T15:34:15;15.98;;;7.43;;
63770;SDS011;60282;43.862;18.430;2022-08-23T15:36:41;16.23;;;7.93;;
63770;SDS011;60282;43.862;18.430;2022-08-23T15:39:22;17.10;;;7.85;;
63770;SDS011;60282;43.862;18.430;2022-08-23T15:41:48;16.52;;;7.50;;
63770;SDS011;60282;43.862;18.430;2022-08-23T15:44:20;16.80;;;8.50;;
63770;SDS011;60282;43.862;18.430;2022-08-23T15:46:46;17.88;;;8.25;;
63770;SDS011;60282;43.862;18.430;2022-08-23T15:49:13;15.98;;;6.82;;
63770;SDS011;60282;43.862;18.430;2022-08-23T15:51:41;16.08;;;7.93;;
63770;SDS011;60282;43.862;18.430;2022-08-23T15:54:10;20.25;;;8.60;;
63770;SDS011;60282;43.862;18.430;2022-08-23T15:56:41;19.65;;;7.47;;
63770;SDS011;60282;43.862;18.430;2022-08-23T16:01:36;15.30;;;8.10;;
63770;SDS011;60282;43.862;18.430;2022-08-23T16:04:04;15.10;;;7.82;;
63770;SDS011;60282;43.862;18.430;2022-08-23T16:06:30;15.68;;;8.30;;
63770;SDS011;60282;43.862;18.430;2022-08-23T16:09:16;16.05;;;8.63;;
63770;SDS011;60282;43.862;18.430;2022-08-23T16:12:33;15.32;;;7.38;;
63770;SDS011;60282;43.862;18.430;2022-08-23T16:18:32;18.88;;;8.00;;
63770;SDS011;60282;43.862;18.430;2022-08-23T16:21:12;14.45;;;7.55;;
63770;SDS011;60282;43.862;18.430;2022-08-23T16:23:55;15.93;;;7.47;;
63770;SDS011;60282;43.862;18.430;2022-08-23T16:26:28;20.15;;;8.50;;
63770;SDS011;60282;43.862;18.430;2022-08-23T16:28:56;18.00;;;8.73;;
63770;SDS011;60282;43.862;18.430;2022-08-23T16:31:27;19.83;;;9.18;;
63770;SDS011;60282;43.862;18.430;2022-08-23T16:33:54;16.10;;;8.35;;
63770;SDS011;60282;43.862;18.430;2022-08-23T16:36:26;21.40;;;9.32;;
63770;SDS011;60282;43.862;18.430;2022-08-23T16:38:52;17.92;;;8.70;;
63770;SDS011;60282;43.862;18.430;2022-08-23T16:41:25;21.95;;;8.63;;
63770;SDS011;60282;43.862;18.430;2022-08-23T16:44:01;21.33;;;9.82;;
63770;SDS011;60282;43.862;18.430;2022-08-23T16:52:54;16.38;;;8.02;;
63770;SDS011;60282;43.862;18.430;2022-08-23T16:55:47;25.92;;;9.65;;
63770;SDS011;60282;43.862;18.430;2022-08-23T16:58:34;19.25;;;9.40;;
63770;SDS011;60282;43.862;18.430;2022-08-23T17:01:00;18.10;;;8.20;;
63770;SDS011;60282;43.862;18.430;2022-08-23T17:03:29;22.95;;;9.85;;
63770;SDS011;60282;43.862;18.430;2022-08-23T17:05:56;20.90;;;9.18;;
63770;SDS011;60282;43.862;18.430;2022-08-23T17:08:45;21.45;;;11.48;;
63770;SDS011;60282;43.862;18.430;2022-08-23T17:11:26;17.85;;;8.70;;